Terminal Aerodrome Forecast
Issued by NWS Lubbock, TX

Home | Current Version | Previous Version | Text Only | Print | Product List | Glossary On
Versions: 1 2 3 4 5 6 7 8 9 10 11 12 13 14 15 16 17 18 19 20 21 22 23 24 25 26 27 28
000
FTUS44 KLUB 201800 AAB
TAFLBB
TAF AMD
KLBB 201813Z 2018/2118 22015KT P6SM SCT020 BKN040 BKN250
      TEMPO 2020/2023 TSRA BKN045CB
     FM211000 33010KT P6SM SCT100=

USA.gov is the U.S. government's official web portal to all federal, state and local government web resources and services.